sensor_id;sensor_type;location;lat;lon;timestamp;temperature;humidity
324;DHT22;149;51.094;17.002;2023-11-19T00:01:12;1.90;99.90
324;DHT22;149;51.094;17.002;2023-11-19T00:03:42;1.90;99.90
324;DHT22;149;51.094;17.002;2023-11-19T00:06:10;1.90;99.90
324;DHT22;149;51.094;17.002;2023-11-19T00:08:38;1.90;99.90
324;DHT22;149;51.094;17.002;2023-11-19T00:11:05;1.80;99.90
324;DHT22;149;51.094;17.002;2023-11-19T00:13:32;1.80;99.90
324;DHT22;149;51.094;17.002;2023-11-19T00:16:02;1.80;99.90
324;DHT22;149;51.094;17.002;2023-11-19T00:18:31;1.80;99.90
324;DHT22;149;51.094;17.002;2023-11-19T00:20:59;1.80;99.90
324;DHT22;149;51.094;17.002;2023-11-19T00:23:26;1.80;99.90
324;DHT22;149;51.094;17.002;2023-11-19T00:25:54;1.90;99.90
324;DHT22;149;51.094;17.002;2023-11-19T00:28:21;1.90;99.90
324;DHT22;149;51.094;17.002;2023-11-19T00:30:48;1.90;99.90
324;DHT22;149;51.094;17.002;2023-11-19T00:33:16;1.80;99.90
324;DHT22;149;51.094;17.002;2023-11-19T00:35:43;1.80;99.90
324;DHT22;149;51.094;17.002;2023-11-19T00:38:10;1.80;99.90
324;DHT22;149;51.094;17.002;2023-11-19T00:40:39;1.80;99.90
324;DHT22;149;51.094;17.002;2023-11-19T00:43:07;2.10;99.90
324;DHT22;149;51.094;17.002;2023-11-19T00:45:35;1.80;99.90
324;DHT22;149;51.094;17.002;2023-11-19T00:48:02;1.90;99.90
324;DHT22;149;51.094;17.002;2023-11-19T00:50:30;1.80;99.90
324;DHT22;149;51.094;17.002;2023-11-19T00:53:02;1.80;99.90
324;DHT22;149;51.094;17.002;2023-11-19T00:55:30;1.80;99.90
324;DHT22;149;51.094;17.002;2023-11-19T00:57:57;1.70;99.90
324;DHT22;149;51.094;17.002;2023-11-19T01:00:25;1.70;99.90
324;DHT22;149;51.094;17.002;2023-11-19T01:02:53;1.60;99.90
324;DHT22;149;51.094;17.002;2023-11-19T01:05:21;1.60;99.90
324;DHT22;149;51.094;17.002;2023-11-19T01:10:27;1.40;99.90
324;DHT22;149;51.094;17.002;2023-11-19T01:15:27;1.40;99.90
324;DHT22;149;51.094;17.002;2023-11-19T01:17:54;1.40;99.90
324;DHT22;149;51.094;17.002;2023-11-19T01:20:21;1.30;99.90
324;DHT22;149;51.094;17.002;2023-11-19T01:25:24;1.30;99.90
324;DHT22;149;51.094;17.002;2023-11-19T01:27:52;1.30;99.90
324;DHT22;149;51.094;17.002;2023-11-19T01:30:19;1.30;99.90
324;DHT22;149;51.094;17.002;2023-11-19T01:32:46;1.30;99.90
324;DHT22;149;51.094;17.002;2023-11-19T01:35:13;1.20;99.90
324;DHT22;149;51.094;17.002;2023-11-19T01:37:41;1.20;99.90
324;DHT22;149;51.094;17.002;2023-11-19T01:42:50;1.30;99.90
324;DHT22;149;51.094;17.002;2023-11-19T01:45:28;1.30;99.90
324;DHT22;149;51.094;17.002;2023-11-19T01:48:00;1.30;99.90
324;DHT22;149;51.094;17.002;2023-11-19T01:50:29;1.20;99.90
324;DHT22;149;51.094;17.002;2023-11-19T01:52:57;1.20;99.90
324;DHT22;149;51.094;17.002;2023-11-19T01:55:27;1.60;99.90
324;DHT22;149;51.094;17.002;2023-11-19T01:58:00;1.30;99.90
324;DHT22;149;51.094;17.002;2023-11-19T02:00:27;1.20;99.90
324;DHT22;149;51.094;17.002;2023-11-19T02:08:26;1.20;99.90
324;DHT22;149;51.094;17.002;2023-11-19T02:10:54;1.20;99.90
324;DHT22;149;51.094;17.002;2023-11-19T02:13:27;1.20;99.90
324;DHT22;149;51.094;17.002;2023-11-19T02:15:55;1.30;99.90
324;DHT22;149;51.094;17.002;2023-11-19T02:18:27;1.30;99.90
324;DHT22;149;51.094;17.002;2023-11-19T02:20:58;1.30;99.90
324;DHT22;149;51.094;17.002;2023-11-19T02:23:29;1.30;99.90
324;DHT22;149;51.094;17.002;2023-11-19T02:28:53;1.30;99.90
324;DHT22;149;51.094;17.002;2023-11-19T02:31:20;1.30;99.90
324;DHT22;149;51.094;17.002;2023-11-19T02:33:56;1.30;99.90
324;DHT22;149;51.094;17.002;2023-11-19T02:36:23;1.30;99.90
324;DHT22;149;51.094;17.002;2023-11-19T02:38:51;1.30;99.90
324;DHT22;149;51.094;17.002;2023-11-19T02:41:18;1.30;99.90
324;DHT22;149;51.094;17.002;2023-11-19T02:43:45;1.30;99.90
324;DHT22;149;51.094;17.002;2023-11-19T02:51:18;1.20;99.90
324;DHT22;149;51.094;17.002;2023-11-19T02:53:45;1.20;99.90
324;DHT22;149;51.094;17.002;2023-11-19T02:56:15;1.20;99.90
324;DHT22;149;51.094;17.002;2023-11-19T02:58:47;1.20;99.90
324;DHT22;149;51.094;17.002;2023-11-19T03:03:51;1.30;99.90
324;DHT22;149;51.094;17.002;2023-11-19T03:06:25;1.30;99.90
324;DHT22;149;51.094;17.002;2023-11-19T03:08:57;1.20;99.90
324;DHT22;149;51.094;17.002;2023-11-19T03:11:24;1.20;99.90
324;DHT22;149;51.094;17.002;2023-11-19T03:13:51;1.20;99.90
324;DHT22;149;51.094;17.002;2023-11-19T03:16:18;1.20;99.90
324;DHT22;149;51.094;17.002;2023-11-19T03:18:46;1.20;99.90
324;DHT22;149;51.094;17.002;2023-11-19T03:21:16;1.20;99.90
324;DHT22;149;51.094;17.002;2023-11-19T03:23:43;1.20;99.90
324;DHT22;149;51.094;17.002;2023-11-19T03:26:11;1.20;99.90
324;DHT22;149;51.094;17.002;2023-11-19T03:28:39;1.20;99.90
324;DHT22;149;51.094;17.002;2023-11-19T03:31:06;1.20;99.90
324;DHT22;149;51.094;17.002;2023-11-19T03:33:36;1.20;99.90
324;DHT22;149;51.094;17.002;2023-11-19T03:36:05;1.20;99.90
324;DHT22;149;51.094;17.002;2023-11-19T03:41:13;1.20;99.90
324;DHT22;149;51.094;17.002;2023-11-19T03:43:41;1.20;99.90
324;DHT22;149;51.094;17.002;2023-11-19T03:46:34;1.20;99.90
324;DHT22;149;51.094;17.002;2023-11-19T03:49:02;1.20;99.90
324;DHT22;149;51.094;17.002;2023-11-19T03:51:31;1.20;99.90
324;DHT22;149;51.094;17.002;2023-11-19T03:53:58;1.20;99.90
324;DHT22;149;51.094;17.002;2023-11-19T03:59:07;1.20;99.90
324;DHT22;149;51.094;17.002;2023-11-19T04:01:42;1.20;99.90
324;DHT22;149;51.094;17.002;2023-11-19T04:04:11;1.20;99.90
324;DHT22;149;51.094;17.002;2023-11-19T04:06:40;1.20;99.90
324;DHT22;149;51.094;17.002;2023-11-19T04:09:07;1.20;99.90
324;DHT22;149;51.094;17.002;2023-11-19T04:11:36;1.20;99.90
324;DHT22;149;51.094;17.002;2023-11-19T04:14:02;1.20;99.90
324;DHT22;149;51.094;17.002;2023-11-19T04:16:30;1.30;99.90
324;DHT22;149;51.094;17.002;2023-11-19T04:18:57;1.30;99.90
324;DHT22;149;51.094;17.002;2023-11-19T04:21:24;1.20;99.90
324;DHT22;149;51.094;17.002;2023-11-19T04:23:51;1.20;99.90
324;DHT22;149;51.094;17.002;2023-11-19T04:26:18;1.30;99.90
324;DHT22;149;51.094;17.002;2023-11-19T04:28:45;1.30;99.90
324;DHT22;149;51.094;17.002;2023-11-19T04:33:48;1.30;99.90
324;DHT22;149;51.094;17.002;2023-11-19T04:36:18;1.30;99.90
324;DHT22;149;51.094;17.002;2023-11-19T04:38:45;1.30;99.90
324;DHT22;149;51.094;17.002;2023-11-19T04:41:13;1.30;99.90
324;DHT22;149;51.094;17.002;2023-11-19T04:43:41;1.30;99.90
324;DHT22;149;51.094;17.002;2023-11-19T04:48:51;1.30;99.90
324;DHT22;149;51.094;17.002;2023-11-19T04:51:18;1.30;99.90
324;DHT22;149;51.094;17.002;2023-11-19T04:53:45;1.40;99.90
324;DHT22;149;51.094;17.002;2023-11-19T04:56:12;1.40;99.90
324;DHT22;149;51.094;17.002;2023-11-19T04:58:42;1.40;99.90
324;DHT22;149;51.094;17.002;2023-11-19T05:01:14;1.50;99.90
324;DHT22;149;51.094;17.002;2023-11-19T05:03:47;1.40;99.90
324;DHT22;149;51.094;17.002;2023-11-19T05:06:14;1.50;99.90
324;DHT22;149;51.094;17.002;2023-11-19T05:08:42;1.50;99.90
324;DHT22;149;51.094;17.002;2023-11-19T05:11:09;1.50;99.90
324;DHT22;149;51.094;17.002;2023-11-19T05:13:38;1.50;99.90
324;DHT22;149;51.094;17.002;2023-11-19T05:16:06;1.60;99.90
324;DHT22;149;51.094;17.002;2023-11-19T05:18:33;1.60;99.90
324;DHT22;149;51.094;17.002;2023-11-19T05:21:00;1.60;99.90
324;DHT22;149;51.094;17.002;2023-11-19T05:23:30;1.60;99.90
324;DHT22;149;51.094;17.002;2023-11-19T05:25:58;1.60;99.90
324;DHT22;149;51.094;17.002;2023-11-19T05:28:25;1.70;99.90
324;DHT22;149;51.094;17.002;2023-11-19T05:30:53;1.70;99.90
324;DHT22;149;51.094;17.002;2023-11-19T05:33:20;1.60;99.90
324;DHT22;149;51.094;17.002;2023-11-19T05:35:47;1.70;99.90
324;DHT22;149;51.094;17.002;2023-11-19T05:38:15;1.70;99.90
324;DHT22;149;51.094;17.002;2023-11-19T05:40:42;1.70;99.90
324;DHT22;149;51.094;17.002;2023-11-19T05:43:10;1.70;99.90
324;DHT22;149;51.094;17.002;2023-11-19T05:45:37;1.80;99.90
324;DHT22;149;51.094;17.002;2023-11-19T05:48:04;1.80;99.90
324;DHT22;149;51.094;17.002;2023-11-19T05:50:31;1.90;99.90
324;DHT22;149;51.094;17.002;2023-11-19T05:52:58;1.90;99.90
324;DHT22;149;51.094;17.002;2023-11-19T05:55:25;1.80;99.90
324;DHT22;149;51.094;17.002;2023-11-19T05:57:57;1.90;99.90
324;DHT22;149;51.094;17.002;2023-11-19T06:00:24;1.90;99.90
324;DHT22;149;51.094;17.002;2023-11-19T06:02:53;1.90;99.90
324;DHT22;149;51.094;17.002;2023-11-19T06:05:21;1.90;99.90
324;DHT22;149;51.094;17.002;2023-11-19T06:07:48;1.90;99.90
324;DHT22;149;51.094;17.002;2023-11-19T06:10:25;2.00;99.90
324;DHT22;149;51.094;17.002;2023-11-19T06:13:05;2.00;99.90
324;DHT22;149;51.094;17.002;2023-11-19T06:18:00;2.00;99.90
324;DHT22;149;51.094;17.002;2023-11-19T06:20:32;2.10;99.90
324;DHT22;149;51.094;17.002;2023-11-19T06:23:02;2.20;99.90
324;DHT22;149;51.094;17.002;2023-11-19T06:25:32;2.10;99.90
324;DHT22;149;51.094;17.002;2023-11-19T06:28:03;2.00;99.90
324;DHT22;149;51.094;17.002;2023-11-19T06:30:30;2.00;99.90
324;DHT22;149;51.094;17.002;2023-11-19T06:33:02;2.00;99.90
324;DHT22;149;51.094;17.002;2023-11-19T06:35:30;2.00;99.90
324;DHT22;149;51.094;17.002;2023-11-19T06:38:03;2.10;99.90
324;DHT22;149;51.094;17.002;2023-11-19T06:40:34;2.10;99.90
324;DHT22;149;51.094;17.002;2023-11-19T06:43:05;2.10;99.90
324;DHT22;149;51.094;17.002;2023-11-19T06:48:22;2.10;99.90
324;DHT22;149;51.094;17.002;2023-11-19T06:50:49;2.10;99.90
324;DHT22;149;51.094;17.002;2023-11-19T06:53:19;2.20;99.90
324;DHT22;149;51.094;17.002;2023-11-19T06:58:25;2.20;99.90
324;DHT22;149;51.094;17.002;2023-11-19T07:00:52;2.30;99.90
324;DHT22;149;51.094;17.002;2023-11-19T07:03:22;2.40;99.90
324;DHT22;149;51.094;17.002;2023-11-19T07:05:49;2.40;99.90
324;DHT22;149;51.094;17.002;2023-11-19T07:08:16;2.40;99.90
324;DHT22;149;51.094;17.002;2023-11-19T07:10:43;2.50;99.90
324;DHT22;149;51.094;17.002;2023-11-19T07:13:10;2.50;99.90
324;DHT22;149;51.094;17.002;2023-11-19T07:15:43;2.60;99.90
324;DHT22;149;51.094;17.002;2023-11-19T07:18:13;2.60;99.90
324;DHT22;149;51.094;17.002;2023-11-19T07:20:40;2.70;99.90
324;DHT22;149;51.094;17.002;2023-11-19T07:23:16;2.70;99.90
324;DHT22;149;51.094;17.002;2023-11-19T07:25:43;2.70;99.90
324;DHT22;149;51.094;17.002;2023-11-19T07:28:13;2.70;99.90
324;DHT22;149;51.094;17.002;2023-11-19T07:30:41;2.80;99.90
324;DHT22;149;51.094;17.002;2023-11-19T07:33:08;2.80;99.90
324;DHT22;149;51.094;17.002;2023-11-19T07:35:35;2.90;99.90
324;DHT22;149;51.094;17.002;2023-11-19T07:38:03;3.00;99.90
324;DHT22;149;51.094;17.002;2023-11-19T07:40:30;2.90;99.90
324;DHT22;149;51.094;17.002;2023-11-19T07:42:59;2.90;99.90
324;DHT22;149;51.094;17.002;2023-11-19T07:45:26;2.90;99.90
324;DHT22;149;51.094;17.002;2023-11-19T07:47:54;2.90;99.90
324;DHT22;149;51.094;17.002;2023-11-19T07:50:21;2.90;99.90
324;DHT22;149;51.094;17.002;2023-11-19T07:52:48;2.70;99.90
324;DHT22;149;51.094;17.002;2023-11-19T07:55:15;2.90;99.90
324;DHT22;149;51.094;17.002;2023-11-19T07:57:42;2.90;99.90
324;DHT22;149;51.094;17.002;2023-11-19T08:00:09;2.90;99.90
324;DHT22;149;51.094;17.002;2023-11-19T08:02:39;2.90;99.90
324;DHT22;149;51.094;17.002;2023-11-19T08:05:08;2.90;99.90
324;DHT22;149;51.094;17.002;2023-11-19T08:07:35;2.90;99.90
324;DHT22;149;51.094;17.002;2023-11-19T08:10:04;2.90;99.90
324;DHT22;149;51.094;17.002;2023-11-19T08:12:32;2.80;99.90
324;DHT22;149;51.094;17.002;2023-11-19T08:15:02;2.90;99.90
324;DHT22;149;51.094;17.002;2023-11-19T08:17:31;2.80;99.90
324;DHT22;149;51.094;17.002;2023-11-19T08:19:58;2.90;99.90
324;DHT22;149;51.094;17.002;2023-11-19T08:22:27;2.80;99.90
324;DHT22;149;51.094;17.002;2023-11-19T08:24:54;2.80;99.90
324;DHT22;149;51.094;17.002;2023-11-19T08:27:22;2.80;99.90
324;DHT22;149;51.094;17.002;2023-11-19T08:29:54;2.80;99.90
324;DHT22;149;51.094;17.002;2023-11-19T08:32:24;2.60;99.90
324;DHT22;149;51.094;17.002;2023-11-19T08:34:52;2.70;99.90
324;DHT22;149;51.094;17.002;2023-11-19T08:37:20;2.60;99.90
324;DHT22;149;51.094;17.002;2023-11-19T08:39:50;2.50;99.90
324;DHT22;149;51.094;17.002;2023-11-19T08:42:18;2.70;99.90
324;DHT22;149;51.094;17.002;2023-11-19T08:44:49;2.50;99.90
324;DHT22;149;51.094;17.002;2023-11-19T08:47:17;2.50;99.90
324;DHT22;149;51.094;17.002;2023-11-19T08:49:45;2.40;99.90
324;DHT22;149;51.094;17.002;2023-11-19T08:52:28;2.40;99.90
324;DHT22;149;51.094;17.002;2023-11-19T08:55:04;2.30;99.90
324;DHT22;149;51.094;17.002;2023-11-19T08:57:32;2.30;99.90
324;DHT22;149;51.094;17.002;2023-11-19T09:00:03;2.30;99.90
324;DHT22;149;51.094;17.002;2023-11-19T09:02:37;2.30;99.90
324;DHT22;149;51.094;17.002;2023-11-19T09:05:05;2.30;99.90
324;DHT22;149;51.094;17.002;2023-11-19T09:07:34;2.40;99.90
324;DHT22;149;51.094;17.002;2023-11-19T09:10:02;2.40;99.90
324;DHT22;149;51.094;17.002;2023-11-19T09:12:31;2.30;99.90
324;DHT22;149;51.094;17.002;2023-11-19T09:14:58;2.40;99.90
324;DHT22;149;51.094;17.002;2023-11-19T09:17:25;2.50;99.90
324;DHT22;149;51.094;17.002;2023-11-19T09:19:53;2.50;99.90
324;DHT22;149;51.094;17.002;2023-11-19T09:22:20;2.60;99.90
324;DHT22;149;51.094;17.002;2023-11-19T09:24:47;2.60;99.90
324;DHT22;149;51.094;17.002;2023-11-19T09:27:14;2.60;99.90
324;DHT22;149;51.094;17.002;2023-11-19T09:29:42;2.80;99.90
324;DHT22;149;51.094;17.002;2023-11-19T09:32:10;2.80;99.90
324;DHT22;149;51.094;17.002;2023-11-19T09:34:36;2.80;99.90
324;DHT22;149;51.094;17.002;2023-11-19T09:37:03;2.90;99.90
324;DHT22;149;51.094;17.002;2023-11-19T09:39:47;2.90;99.90
324;DHT22;149;51.094;17.002;2023-11-19T09:42:14;2.90;99.90
324;DHT22;149;51.094;17.002;2023-11-19T09:44:42;3.00;99.90
324;DHT22;149;51.094;17.002;2023-11-19T09:47:11;3.10;99.90
324;DHT22;149;51.094;17.002;2023-11-19T09:49:39;3.10;99.90
324;DHT22;149;51.094;17.002;2023-11-19T09:52:06;3.10;99.90
324;DHT22;149;51.094;17.002;2023-11-19T09:54:34;3.10;99.90
324;DHT22;149;51.094;17.002;2023-11-19T09:57:02;3.20;99.90
324;DHT22;149;51.094;17.002;2023-11-19T09:59:33;3.20;99.90
324;DHT22;149;51.094;17.002;2023-11-19T10:02:00;3.20;99.90
324;DHT22;149;51.094;17.002;2023-11-19T10:04:29;3.20;99.90
324;DHT22;149;51.094;17.002;2023-11-19T10:06:59;3.20;99.90
324;DHT22;149;51.094;17.002;2023-11-19T10:09:27;3.30;99.90
324;DHT22;149;51.094;17.002;2023-11-19T10:11:54;3.50;99.90
324;DHT22;149;51.094;17.002;2023-11-19T10:14:23;3.40;99.90
324;DHT22;149;51.094;17.002;2023-11-19T10:16:51;3.50;99.90
324;DHT22;149;51.094;17.002;2023-11-19T10:19:21;3.60;99.90
324;DHT22;149;51.094;17.002;2023-11-19T10:21:48;3.60;99.90
324;DHT22;149;51.094;17.002;2023-11-19T10:24:15;3.80;99.90
324;DHT22;149;51.094;17.002;2023-11-19T10:26:47;4.00;99.90
324;DHT22;149;51.094;17.002;2023-11-19T10:29:14;4.10;99.90
324;DHT22;149;51.094;17.002;2023-11-19T10:31:56;4.10;99.90
324;DHT22;149;51.094;17.002;2023-11-19T10:34:43;4.20;99.90
324;DHT22;149;51.094;17.002;2023-11-19T10:37:27;4.30;99.90
324;DHT22;149;51.094;17.002;2023-11-19T10:39:55;4.30;99.90
324;DHT22;149;51.094;17.002;2023-11-19T10:42:22;4.40;99.90
324;DHT22;149;51.094;17.002;2023-11-19T10:44:49;4.40;99.90
324;DHT22;149;51.094;17.002;2023-11-19T10:47:19;4.40;99.90
324;DHT22;149;51.094;17.002;2023-11-19T10:50:04;4.40;99.90
324;DHT22;149;51.094;17.002;2023-11-19T10:52:33;4.40;99.90
324;DHT22;149;51.094;17.002;2023-11-19T10:55:00;4.30;99.90
324;DHT22;149;51.094;17.002;2023-11-19T10:57:30;4.30;99.90
324;DHT22;149;51.094;17.002;2023-11-19T11:00:01;4.30;99.90
324;DHT22;149;51.094;17.002;2023-11-19T11:02:34;4.30;99.90
324;DHT22;149;51.094;17.002;2023-11-19T11:05:05;4.20;99.90
324;DHT22;149;51.094;17.002;2023-11-19T11:07:34;4.30;99.90
324;DHT22;149;51.094;17.002;2023-11-19T11:10:07;4.40;99.90
324;DHT22;149;51.094;17.002;2023-11-19T11:12:40;4.20;99.90
324;DHT22;149;51.094;17.002;2023-11-19T11:15:10;4.10;99.90
324;DHT22;149;51.094;17.002;2023-11-19T11:17:43;4.10;99.90
324;DHT22;149;51.094;17.002;2023-11-19T11:20:14;4.10;99.90
324;DHT22;149;51.094;17.002;2023-11-19T11:28:54;4.10;99.90
324;DHT22;149;51.094;17.002;2023-11-19T11:37:10;4.10;99.90
324;DHT22;149;51.094;17.002;2023-11-19T11:39:36;4.20;99.90
324;DHT22;149;51.094;17.002;2023-11-19T11:45:10;4.20;99.90
324;DHT22;149;51.094;17.002;2023-11-19T11:55:28;4.40;99.90
324;DHT22;149;51.094;17.002;2023-11-19T11:57:55;4.40;99.90
324;DHT22;149;51.094;17.002;2023-11-19T12:00:27;4.40;99.90
324;DHT22;149;51.094;17.002;2023-11-19T12:02:59;4.60;99.90
324;DHT22;149;51.094;17.002;2023-11-19T12:05:27;4.40;99.90
324;DHT22;149;51.094;17.002;2023-11-19T12:07:56;4.40;99.90
324;DHT22;149;51.094;17.002;2023-11-19T12:10:25;4.50;99.90
324;DHT22;149;51.094;17.002;2023-11-19T12:12:58;4.60;99.90
324;DHT22;149;51.094;17.002;2023-11-19T12:15:25;4.90;99.90
324;DHT22;149;51.094;17.002;2023-11-19T12:17:56;4.90;99.90
324;DHT22;149;51.094;17.002;2023-11-19T12:20:26;4.90;99.90
324;DHT22;149;51.094;17.002;2023-11-19T12:22:57;5.00;99.90
324;DHT22;149;51.094;17.002;2023-11-19T12:25:24;5.00;99.90
324;DHT22;149;51.094;17.002;2023-11-19T12:27:52;5.00;99.90
324;DHT22;149;51.094;17.002;2023-11-19T12:30:25;5.10;99.90
324;DHT22;149;51.094;17.002;2023-11-19T12:32:53;5.10;99.90
324;DHT22;149;51.094;17.002;2023-11-19T12:35:22;5.30;99.90
324;DHT22;149;51.094;17.002;2023-11-19T12:37:50;5.50;99.90
324;DHT22;149;51.094;17.002;2023-11-19T12:40:22;5.40;99.90
324;DHT22;149;51.094;17.002;2023-11-19T12:42:51;5.30;99.90
324;DHT22;149;51.094;17.002;2023-11-19T12:45:19;5.30;99.90
324;DHT22;149;51.094;17.002;2023-11-19T12:47:47;5.50;99.90
324;DHT22;149;51.094;17.002;2023-11-19T12:50:17;5.50;99.90
324;DHT22;149;51.094;17.002;2023-11-19T12:52:58;5.50;99.90
324;DHT22;149;51.094;17.002;2023-11-19T12:55:27;5.50;99.90
324;DHT22;149;51.094;17.002;2023-11-19T12:57:56;5.50;99.90
324;DHT22;149;51.094;17.002;2023-11-19T13:00:26;5.50;99.90
324;DHT22;149;51.094;17.002;2023-11-19T13:02:55;5.60;99.90
324;DHT22;149;51.094;17.002;2023-11-19T13:05:27;5.70;99.90
324;DHT22;149;51.094;17.002;2023-11-19T13:08:15;5.70;99.90
324;DHT22;149;51.094;17.002;2023-11-19T13:13:15;5.70;99.90
324;DHT22;149;51.094;17.002;2023-11-19T13:15:43;5.80;99.90
324;DHT22;149;51.094;17.002;2023-11-19T13:18:12;5.80;99.90
324;DHT22;149;51.094;17.002;2023-11-19T13:20:40;5.90;99.90
324;DHT22;149;51.094;17.002;2023-11-19T13:23:07;5.80;99.90
324;DHT22;149;51.094;17.002;2023-11-19T13:25:34;5.90;99.90
324;DHT22;149;51.094;17.002;2023-11-19T13:28:02;5.90;99.90
324;DHT22;149;51.094;17.002;2023-11-19T13:30:29;6.00;99.90
324;DHT22;149;51.094;17.002;2023-11-19T13:32:59;6.00;99.90
324;DHT22;149;51.094;17.002;2023-11-19T13:35:28;6.20;99.90
324;DHT22;149;51.094;17.002;2023-11-19T13:37:55;6.30;99.90
324;DHT22;149;51.094;17.002;2023-11-19T13:40:22;6.40;99.90
324;DHT22;149;51.094;17.002;2023-11-19T13:42:51;6.40;99.90
324;DHT22;149;51.094;17.002;2023-11-19T13:45:19;6.30;99.90
324;DHT22;149;51.094;17.002;2023-11-19T13:47:47;6.40;99.90
324;DHT22;149;51.094;17.002;2023-11-19T13:50:15;6.40;99.90
324;DHT22;149;51.094;17.002;2023-11-19T13:52:44;6.50;99.90
324;DHT22;149;51.094;17.002;2023-11-19T13:55:13;6.60;99.90
324;DHT22;149;51.094;17.002;2023-11-19T13:57:41;6.80;99.90
324;DHT22;149;51.094;17.002;2023-11-19T14:00:10;6.70;99.90
324;DHT22;149;51.094;17.002;2023-11-19T14:02:46;6.70;99.90
324;DHT22;149;51.094;17.002;2023-11-19T14:05:16;6.80;99.90
324;DHT22;149;51.094;17.002;2023-11-19T14:08:04;6.80;99.90
324;DHT22;149;51.094;17.002;2023-11-19T14:10:51;6.80;99.90
324;DHT22;149;51.094;17.002;2023-11-19T14:13:18;6.90;99.90
324;DHT22;149;51.094;17.002;2023-11-19T14:15:45;7.10;99.90
324;DHT22;149;51.094;17.002;2023-11-19T14:18:16;6.90;99.90
324;DHT22;149;51.094;17.002;2023-11-19T14:20:44;6.80;99.90
324;DHT22;149;51.094;17.002;2023-11-19T14:23:11;6.80;99.90
324;DHT22;149;51.094;17.002;2023-11-19T14:25:38;6.70;99.90
324;DHT22;149;51.094;17.002;2023-11-19T14:28:05;6.90;99.90
324;DHT22;149;51.094;17.002;2023-11-19T14:30:33;7.00;99.90
324;DHT22;149;51.094;17.002;2023-11-19T14:33:01;7.10;99.90
324;DHT22;149;51.094;17.002;2023-11-19T14:35:30;7.10;99.90
324;DHT22;149;51.094;17.002;2023-11-19T14:37:59;7.10;99.90
324;DHT22;149;51.094;17.002;2023-11-19T14:40:27;6.80;99.90
324;DHT22;149;51.094;17.002;2023-11-19T14:42:56;6.70;99.90
324;DHT22;149;51.094;17.002;2023-11-19T14:45:24;6.60;99.90
324;DHT22;149;51.094;17.002;2023-11-19T14:47:51;6.70;99.90
324;DHT22;149;51.094;17.002;2023-11-19T14:50:19;6.70;99.90
324;DHT22;149;51.094;17.002;2023-11-19T14:52:47;6.70;99.90
324;DHT22;149;51.094;17.002;2023-11-19T14:55:14;6.70;99.90
324;DHT22;149;51.094;17.002;2023-11-19T14:57:41;6.60;99.90
324;DHT22;149;51.094;17.002;2023-11-19T15:00:23;6.60;99.90
324;DHT22;149;51.094;17.002;2023-11-19T15:02:50;6.50;99.90
324;DHT22;149;51.094;17.002;2023-11-19T15:05:17;6.60;99.90
324;DHT22;149;51.094;17.002;2023-11-19T15:07:44;6.80;99.90
324;DHT22;149;51.094;17.002;2023-11-19T15:10:11;6.70;99.90
324;DHT22;149;51.094;17.002;2023-11-19T15:12:39;6.90;99.90
324;DHT22;149;51.094;17.002;2023-11-19T15:15:08;6.90;99.90
324;DHT22;149;51.094;17.002;2023-11-19T15:17:36;6.90;99.90
324;DHT22;149;51.094;17.002;2023-11-19T15:20:04;7.00;99.90
324;DHT22;149;51.094;17.002;2023-11-19T15:22:31;6.90;99.90
324;DHT22;149;51.094;17.002;2023-11-19T15:24:58;6.80;99.90
324;DHT22;149;51.094;17.002;2023-11-19T15:27:25;6.90;99.90
324;DHT22;149;51.094;17.002;2023-11-19T15:29:52;6.90;99.90
324;DHT22;149;51.094;17.002;2023-11-19T15:32:19;6.70;99.90
324;DHT22;149;51.094;17.002;2023-11-19T15:34:46;6.70;99.90
324;DHT22;149;51.094;17.002;2023-11-19T15:37:13;6.60;99.90
324;DHT22;149;51.094;17.002;2023-11-19T15:39:42;6.60;99.90
324;DHT22;149;51.094;17.002;2023-11-19T15:42:09;6.70;99.90
324;DHT22;149;51.094;17.002;2023-11-19T15:44:39;6.70;99.90
324;DHT22;149;51.094;17.002;2023-11-19T15:47:10;6.70;99.90
324;DHT22;149;51.094;17.002;2023-11-19T15:49:43;6.80;99.90
324;DHT22;149;51.094;17.002;2023-11-19T15:52:23;6.80;99.90
324;DHT22;149;51.094;17.002;2023-11-19T15:54:52;6.70;99.90
324;DHT22;149;51.094;17.002;2023-11-19T15:57:20;6.60;99.90
324;DHT22;149;51.094;17.002;2023-11-19T15:59:48;6.70;99.90
324;DHT22;149;51.094;17.002;2023-11-19T16:02:15;6.80;99.90
324;DHT22;149;51.094;17.002;2023-11-19T16:04:43;6.60;99.90
324;DHT22;149;51.094;17.002;2023-11-19T16:07:15;6.60;99.90
324;DHT22;149;51.094;17.002;2023-11-19T16:12:18;6.50;99.90
324;DHT22;149;51.094;17.002;2023-11-19T16:14:46;6.60;99.90
324;DHT22;149;51.094;17.002;2023-11-19T16:17:13;6.60;99.90
324;DHT22;149;51.094;17.002;2023-11-19T16:19:40;6.60;99.90
324;DHT22;149;51.094;17.002;2023-11-19T16:22:09;6.70;99.90
324;DHT22;149;51.094;17.002;2023-11-19T16:24:40;6.60;99.90
324;DHT22;149;51.094;17.002;2023-11-19T16:27:07;6.70;99.90
324;DHT22;149;51.094;17.002;2023-11-19T16:29:56;6.60;99.90
324;DHT22;149;51.094;17.002;2023-11-19T16:32:25;6.70;99.90
324;DHT22;149;51.094;17.002;2023-11-19T16:34:52;6.70;99.90
324;DHT22;149;51.094;17.002;2023-11-19T16:37:19;6.80;99.90
324;DHT22;149;51.094;17.002;2023-11-19T16:39:47;6.70;99.90
324;DHT22;149;51.094;17.002;2023-11-19T16:42:15;6.90;99.90
324;DHT22;149;51.094;17.002;2023-11-19T16:44:45;6.80;99.90
324;DHT22;149;51.094;17.002;2023-11-19T16:47:12;6.90;99.90
324;DHT22;149;51.094;17.002;2023-11-19T16:49:39;6.80;99.90
324;DHT22;149;51.094;17.002;2023-11-19T16:52:06;6.80;99.90
324;DHT22;149;51.094;17.002;2023-11-19T16:54:34;6.80;99.90
324;DHT22;149;51.094;17.002;2023-11-19T16:57:01;6.70;99.90
324;DHT22;149;51.094;17.002;2023-11-19T16:59:28;6.80;99.90
324;DHT22;149;51.094;17.002;2023-11-19T17:01:55;6.80;99.90
324;DHT22;149;51.094;17.002;2023-11-19T17:04:22;6.70;99.90
324;DHT22;149;51.094;17.002;2023-11-19T17:06:49;7.00;99.90
324;DHT22;149;51.094;17.002;2023-11-19T17:09:16;6.80;99.90
324;DHT22;149;51.094;17.002;2023-11-19T17:11:44;6.90;99.90
324;DHT22;149;51.094;17.002;2023-11-19T17:14:12;7.00;99.90
324;DHT22;149;51.094;17.002;2023-11-19T17:16:40;7.00;99.90
324;DHT22;149;51.094;17.002;2023-11-19T17:19:07;7.00;99.90
324;DHT22;149;51.094;17.002;2023-11-19T17:21:34;7.00;99.90
324;DHT22;149;51.094;17.002;2023-11-19T17:24:01;7.00;99.90
324;DHT22;149;51.094;17.002;2023-11-19T17:26:29;7.00;99.90
324;DHT22;149;51.094;17.002;2023-11-19T17:28:59;7.10;99.90
324;DHT22;149;51.094;17.002;2023-11-19T17:31:26;7.20;99.90
324;DHT22;149;51.094;17.002;2023-11-19T17:33:53;7.10;99.90
324;DHT22;149;51.094;17.002;2023-11-19T17:36:20;7.10;99.90
324;DHT22;149;51.094;17.002;2023-11-19T17:38:49;7.10;99.90
324;DHT22;149;51.094;17.002;2023-11-19T17:41:17;7.10;99.90
324;DHT22;149;51.094;17.002;2023-11-19T17:43:44;7.20;99.90
324;DHT22;149;51.094;17.002;2023-11-19T17:46:10;7.20;99.90
324;DHT22;149;51.094;17.002;2023-11-19T17:48:38;7.20;99.90
324;DHT22;149;51.094;17.002;2023-11-19T17:51:05;7.20;99.90
324;DHT22;149;51.094;17.002;2023-11-19T17:53:33;7.20;99.90
324;DHT22;149;51.094;17.002;2023-11-19T17:56:04;7.10;99.90
324;DHT22;149;51.094;17.002;2023-11-19T17:58:31;7.30;99.90